Time;durP1;ratioP1;P1;durP2;ratioP2;P2;SDS_P1;SDS_P2;PMS_P1;PMS_P2;Temp;Humidity;BMP_temperature;BMP_pressure;BME280_temperature;BME280_humidity;BME280_pressure;Samples;Min_cycle;Max_cycle;Signal;HPM_P1;HPM_P2
2024/02/22 00:02:04;;;;;;;2.72;2.30;;;12.60;82.60;;;;;;4824149;29;20117;-89
2024/02/22 00:04:31;;;;;;;2.50;2.30;;;12.60;82.60;;;;;;4809385;29;20094;-90
2024/02/22 00:06:57;;;;;;;2.30;2.10;;;12.60;82.60;;;;;;4808214;29;20044;-80
2024/02/22 00:09:23;;;;;;;2.42;2.13;;;12.60;82.60;;;;;;4807751;29;20500;-89
2024/02/22 00:11:48;;;;;;;2.65;2.40;;;12.60;82.60;;;;;;4799090;29;20552;-91
2024/02/22 00:14:14;;;;;;;2.30;2.10;;;12.60;82.60;;;;;;4793138;29;20644;-85
2024/02/22 00:16:40;;;;;;;2.65;2.45;;;12.60;82.60;;;;;;4823870;29;20038;-90
2024/02/22 00:19:06;;;;;;;2.30;2.10;;;12.60;82.60;;;;;;4803484;29;20031;-89
2024/02/22 00:21:32;;;;;;;2.30;2.10;;;12.60;82.60;;;;;;4825665;29;20555;-89
2024/02/22 00:23:58;;;;;;;2.50;2.30;;;12.60;82.50;;;;;;4805314;29;20495;-87
2024/02/22 00:26:25;;;;;;;2.78;2.47;;;12.60;82.50;;;;;;4803118;29;20183;-90
2024/02/22 00:28:51;;;;;;;2.90;2.40;;;12.60;82.50;;;;;;4791082;29;20133;-80
2024/02/22 00:31:19;;;;;;;2.75;2.42;;;12.60;82.50;;;;;;4791827;29;20110;-88
2024/02/22 00:33:46;;;;;;;2.60;2.30;;;12.60;82.50;;;;;;4823466;29;20147;-89
2024/02/22 00:36:12;;;;;;;2.50;2.30;;;12.60;82.50;;;;;;4822491;29;20525;-89
2024/02/22 00:38:39;;;;;;;2.50;2.30;;;12.60;82.50;;;;;;4823830;29;20437;-89
2024/02/22 00:41:05;;;;;;;2.42;2.22;;;12.60;82.50;;;;;;4810197;29;20057;-89
2024/02/22 00:43:31;;;;;;;2.30;2.10;;;12.60;82.50;;;;;;4822759;29;20091;-89
2024/02/22 00:45:57;;;;;;;2.50;2.30;;;12.60;82.50;;;;;;4827134;29;20038;-89
2024/02/22 00:48:23;;;;;;;2.53;2.33;;;12.60;82.50;;;;;;4807911;29;20042;-89
2024/02/22 00:50:48;;;;;;;2.63;2.42;;;12.60;82.50;;;;;;4809741;29;20399;-89
2024/02/22 00:53:16;;;;;;;2.63;2.40;;;12.60;82.50;;;;;;4795220;29;20030;-89
2024/02/22 00:55:42;;;;;;;2.70;2.50;;;12.70;82.60;;;;;;4806228;29;20022;-80
2024/02/22 00:58:10;;;;;;;2.78;2.45;;;12.60;82.50;;;;;;4804262;29;20033;-82
2024/02/22 01:00:36;;;;;;;2.40;2.20;;;12.60;82.60;;;;;;4798789;29;20097;-82
2024/02/22 01:03:04;;;;;;;2.55;2.35;;;12.60;82.60;;;;;;4797585;29;20133;-81
2024/02/22 01:05:30;;;;;;;2.50;2.30;;;12.60;82.60;;;;;;4805319;29;20030;-84
2024/02/22 01:07:56;;;;;;;2.45;2.25;;;12.60;82.50;;;;;;4812978;29;20038;-85
2024/02/22 01:10:22;;;;;;;2.85;2.55;;;12.60;82.60;;;;;;4824766;29;20037;-84
2024/02/22 01:12:48;;;;;;;3.15;2.80;;;12.70;82.60;;;;;;4822800;29;20026;-85
2024/02/22 01:15:14;;;;;;;3.40;2.97;;;12.60;82.50;;;;;;4797157;29;20033;-85
2024/02/22 01:17:39;;;;;;;3.00;2.70;;;12.60;82.50;;;;;;4807499;29;20402;-85
2024/02/22 01:20:06;;;;;;;2.45;2.25;;;12.70;82.60;;;;;;4807646;29;20035;-85
2024/02/22 01:22:32;;;;;;;2.88;2.58;;;12.70;82.60;;;;;;4807924;29;20030;-85
2024/02/22 01:24:58;;;;;;;3.65;2.72;;;12.70;82.60;;;;;;4805751;29;20114;-85
2024/02/22 01:27:23;;;;;;;2.90;2.60;;;12.70;82.60;;;;;;4799002;29;20500;-85
2024/02/22 01:29:49;;;;;;;3.10;2.70;;;12.70;82.60;;;;;;4802174;29;20567;-85
2024/02/22 01:32:15;;;;;;;2.60;2.40;;;12.70;82.60;;;;;;4831340;29;20053;-82
2024/02/22 01:34:41;;;;;;;2.90;2.63;;;12.70;82.60;;;;;;4801565;29;20049;-82
2024/02/22 01:37:08;;;;;;;3.10;2.65;;;12.70;83.20;;;;;;4787974;29;20511;-80
2024/02/22 01:39:34;;;;;;;3.00;2.70;;;12.70;82.50;;;;;;4787802;29;20038;-80
2024/02/22 01:41:59;;;;;;;3.00;2.70;;;12.70;82.60;;;;;;4802298;29;20050;-88
2024/02/22 01:44:29;;;;;;;2.75;2.45;;;12.70;82.60;;;;;;4806521;29;20041;-88
2024/02/22 01:46:55;;;;;;;3.05;2.60;;;12.70;82.50;;;;;;4795037;29;20385;-85
2024/02/22 01:49:25;;;;;;;2.90;2.53;;;12.70;82.60;;;;;;4807411;29;20090;-85
2024/02/22 01:51:56;;;;;;;3.00;2.70;;;12.70;82.60;;;;;;4803773;29;20090;-88
2024/02/22 01:54:22;;;;;;;2.70;2.50;;;12.70;82.60;;;;;;4820003;29;20038;-85
2024/02/22 01:56:49;;;;;;;3.25;2.92;;;12.70;82.50;;;;;;4807863;29;20027;-85
2024/02/22 01:59:15;;;;;;;2.90;2.60;;;12.80;82.60;;;;;;4791762;29;20029;-84
2024/02/22 02:01:42;;;;;;;3.17;2.88;;;12.70;82.60;;;;;;4816572;29;20070;-89
2024/02/22 02:04:12;;;;;;;2.63;2.42;;;12.70;82.50;;;;;;4787345;29;20033;-81
2024/02/22 02:06:38;;;;;;;4.00;2.95;;;12.70;82.60;;;;;;4801107;29;20030;-85
2024/02/22 02:09:04;;;;;;;3.00;2.70;;;12.80;83.30;;;;;;4820570;29;20103;-85
2024/02/22 02:11:32;;;;;;;3.42;3.08;;;12.70;82.50;;;;;;4786748;29;20072;-85
2024/02/22 02:13:58;;;;;;;2.75;2.50;;;12.80;82.60;;;;;;4788060;29;20045;-89
2024/02/22 02:16:24;;;;;;;2.63;2.42;;;12.80;82.60;;;;;;4803317;29;20038;-85
2024/02/22 02:18:49;;;;;;;3.00;2.70;;;12.80;82.60;;;;;;4820575;29;20030;-85
2024/02/22 02:21:23;;;;;;;3.05;2.70;;;12.80;82.60;;;;;;4802546;29;20045;-85
2024/02/22 02:24:31;;;;;;;3.03;2.70;;;12.80;82.60;;;;;;4823537;29;20034;-85
2024/02/22 02:26:59;;;;;;;3.00;2.70;;;12.80;82.60;;;;;;4816640;29;20034;-89
2024/02/22 02:29:25;;;;;;;3.15;2.85;;;12.80;82.60;;;;;;4807520;29;20079;-89
2024/02/22 02:31:51;;;;;;;3.17;2.88;;;12.80;82.60;;;;;;4784260;29;20491;-89
2024/02/22 02:34:16;;;;;;;3.40;2.88;;;12.80;82.60;;;;;;4805809;29;20437;-79
2024/02/22 02:36:42;;;;;;;3.40;3.05;;;12.80;82.60;;;;;;4806272;29;20030;-80
2024/02/22 02:39:09;;;;;;;3.38;2.90;;;12.80;82.60;;;;;;4790118;29;20042;-90
2024/02/22 02:41:36;;;;;;;3.33;2.75;;;12.80;82.60;;;;;;4816835;29;20058;-81
2024/02/22 02:44:02;;;;;;;3.17;2.88;;;12.80;82.60;;;;;;4805102;29;20030;-84
2024/02/22 02:46:27;;;;;;;3.20;2.80;;;12.80;82.60;;;;;;4816701;29;20038;-95
2024/02/22 02:48:53;;;;;;;3.88;3.33;;;12.80;82.60;;;;;;4794163;29;20072;-90
2024/02/22 02:51:20;;;;;;;3.65;3.10;;;12.80;82.50;;;;;;4790798;29;20041;-84
2024/02/22 02:53:46;;;;;;;4.13;3.40;;;12.80;82.50;;;;;;4790857;29;20035;-95
2024/02/22 02:56:12;;;;;;;4.45;3.75;;;12.90;82.60;;;;;;4818830;29;20057;-84
2024/02/22 02:58:37;;;;;;;4.50;3.38;;;12.90;82.60;;;;;;4794088;29;20057;-84
2024/02/22 03:01:09;;;;;;;5.22;4.05;;;12.80;82.60;;;;;;4806281;29;20030;-83
2024/02/22 03:03:35;;;;;;;4.78;3.58;;;12.90;82.60;;;;;;4784782;29;20031;-81
2024/02/22 03:06:01;;;;;;;4.53;3.50;;;12.90;82.60;;;;;;4785939;29;20467;-81
2024/02/22 03:08:27;;;;;;;5.10;3.95;;;12.90;83.20;;;;;;4793809;29;20077;-81
2024/02/22 03:10:52;;;;;;;4.97;3.70;;;12.90;82.50;;;;;;4787157;29;20496;-90
2024/02/22 03:13:18;;;;;;;5.25;4.07;;;12.90;82.50;;;;;;4807794;29;20023;-95
2024/02/22 03:15:44;;;;;;;4.35;3.70;;;12.90;82.50;;;;;;4788390;29;20121;-84
2024/02/22 03:18:10;;;;;;;4.97;3.85;;;12.90;82.50;;;;;;4806675;29;20073;-93
2024/02/22 03:20:39;;;;;;;4.53;3.55;;;12.90;82.50;;;;;;4786754;29;20121;-81
2024/02/22 03:23:05;;;;;;;4.90;4.05;;;12.90;82.50;;;;;;4822214;29;20026;-81
2024/02/22 03:25:32;;;;;;;4.75;3.92;;;12.90;82.50;;;;;;4788444;29;20034;-93
2024/02/22 03:27:58;;;;;;;5.75;4.28;;;12.90;82.60;;;;;;4806936;29;20046;-93
2024/02/22 03:30:27;;;;;;;5.57;4.32;;;12.90;82.50;;;;;;4802941;29;20031;-90
2024/02/22 03:32:54;;;;;;;5.47;4.50;;;13.00;82.60;;;;;;4801802;29;20035;-84
2024/02/22 03:35:20;;;;;;;5.45;4.55;;;13.00;82.60;;;;;;4817547;29;20023;-89
2024/02/22 03:37:46;;;;;;;5.63;4.47;;;13.00;82.60;;;;;;4821445;29;20117;-90
2024/02/22 03:40:12;;;;;;;5.47;4.40;;;13.00;82.60;;;;;;4783032;29;20168;-82
2024/02/22 03:42:38;;;;;;;5.75;4.72;;;13.00;82.50;;;;;;4813773;29;20039;-90
2024/02/22 03:45:05;;;;;;;5.95;4.63;;;13.00;82.50;;;;;;4819553;29;20062;-91
2024/02/22 03:47:31;;;;;;;6.63;5.03;;;13.00;82.50;;;;;;4805113;29;20140;-81
2024/02/22 03:49:58;;;;;;;6.63;5.15;;;13.00;82.50;;;;;;4821243;29;20042;-84
2024/02/22 03:52:23;;;;;;;6.78;5.43;;;13.00;82.50;;;;;;4809678;29;20038;-81
2024/02/22 03:54:50;;;;;;;5.55;4.60;;;13.00;82.50;;;;;;4820631;29;20038;-93
2024/02/22 03:57:15;;;;;;;7.07;4.97;;;13.00;82.50;;;;;;4821990;29;20495;-90
2024/02/22 03:59:41;;;;;;;6.70;5.30;;;13.10;82.50;;;;;;4821331;29;20445;-84
2024/02/22 04:02:07;;;;;;;6.30;4.85;;;13.00;82.40;;;;;;4823699;29;20033;-81
2024/02/22 04:04:35;;;;;;;5.95;4.93;;;13.00;82.40;;;;;;4789633;29;20460;-84
2024/02/22 04:07:01;;;;;;;7.32;5.40;;;13.00;82.40;;;;;;4793750;29;20066;-94
2024/02/22 04:09:27;;;;;;;6.40;5.22;;;13.00;82.40;;;;;;4803386;29;20061;-89
2024/02/22 04:11:54;;;;;;;6.05;5.20;;;13.10;82.50;;;;;;4791418;29;20041;-82
2024/02/22 04:14:20;;;;;;;6.32;5.35;;;13.10;82.50;;;;;;4809486;29;20154;-81
2024/02/22 04:16:49;;;;;;;7.00;5.68;;;13.10;82.50;;;;;;4789663;29;20114;-81
2024/02/22 04:19:15;;;;;;;7.03;5.97;;;13.10;82.50;;;;;;4794114;29;20022;-84
2024/02/22 04:21:41;;;;;;;6.78;5.57;;;13.10;82.50;;;;;;4809055;29;20030;-93
2024/02/22 04:24:08;;;;;;;7.38;5.97;;;13.10;82.50;;;;;;4803484;29;20047;-93
2024/02/22 04:26:47;;;;;;;6.35;5.30;;;13.10;82.50;;;;;;4806365;29;20506;-93
2024/02/22 04:29:15;;;;;;;6.85;5.63;;;13.10;82.50;;;;;;4821218;29;20091;-90
2024/02/22 04:31:43;;;;;;;6.95;5.90;;;13.10;82.40;;;;;;4789902;29;20034;-92
2024/02/22 04:34:10;;;;;;;7.75;6.00;;;13.10;82.40;;;;;;4806477;29;20046;-90
2024/02/22 04:36:40;;;;;;;7.28;5.82;;;13.10;82.40;;;;;;4803819;29;20082;-92
2024/02/22 04:39:07;;;;;;;6.80;5.35;;;13.10;82.40;;;;;;4819944;29;20030;-91
2024/02/22 04:41:33;;;;;;;6.88;5.72;;;13.10;82.40;;;;;;4791529;29;20141;-81
2024/02/22 04:44:00;;;;;;;6.25;5.35;;;13.10;82.40;;;;;;4785258;29;20037;-82
2024/02/22 04:46:26;;;;;;;6.90;5.97;;;13.10;82.40;;;;;;4821293;29;20046;-81
2024/02/22 04:48:53;;;;;;;6.93;5.75;;;13.10;82.40;;;;;;4804994;29;20030;-90
2024/02/22 04:51:19;;;;;;;6.88;6.00;;;13.10;82.40;;;;;;4803743;29;20045;-88
2024/02/22 04:53:44;;;;;;;7.97;5.90;;;13.20;83.00;;;;;;4789327;29;20045;-90
2024/02/22 04:56:12;;;;;;;7.22;5.40;;;13.20;82.40;;;;;;4808006;29;20030;-84
2024/02/22 04:58:39;;;;;;;7.60;6.40;;;13.20;82.40;;;;;;4803223;29;20095;-81
2024/02/22 05:01:07;;;;;;;7.05;5.32;;;13.20;82.30;;;;;;4818429;29;20121;-81
2024/02/22 05:03:33;;;;;;;7.63;5.93;;;13.20;82.30;;;;;;4786299;29;20038;-82
2024/02/22 05:06:00;;;;;;;7.60;5.80;;;13.20;82.30;;;;;;4822217;29;20037;-94
2024/02/22 05:08:26;;;;;;;7.57;5.60;;;13.20;82.30;;;;;;4800181;29;20429;-90
2024/02/22 05:10:53;;;;;;;7.65;6.03;;;13.20;82.40;;;;;;4805916;29;20040;-84
2024/02/22 05:13:21;;;;;;;7.57;6.00;;;13.20;82.30;;;;;;4788856;29;20031;-90
2024/02/22 05:15:47;;;;;;;7.70;5.97;;;13.20;82.30;;;;;;4791497;29;20351;-81
2024/02/22 05:18:13;;;;;;;6.88;5.38;;;13.20;82.30;;;;;;4806309;29;20034;-84
2024/02/22 05:20:39;;;;;;;7.97;6.38;;;13.20;82.30;;;;;;4814211;29;20034;-90
2024/02/22 05:23:06;;;;;;;7.35;5.80;;;13.20;82.30;;;;;;4805302;29;20125;-93
2024/02/22 05:25:33;;;;;;;7.32;5.85;;;13.20;82.30;;;;;;4791216;29;20467;-94
2024/02/22 05:27:58;;;;;;;7.68;6.03;;;13.20;82.30;;;;;;4799909;29;20030;-81
2024/02/22 05:30:24;;;;;;;7.10;5.57;;;13.20;82.30;;;;;;4787405;29;20034;-93
2024/02/22 05:32:50;;;;;;;8.43;5.47;;;13.20;82.30;;;;;;4821615;29;20314;-81
2024/02/22 05:35:17;;;;;;;7.90;5.43;;;13.20;82.30;;;;;;4822115;29;20463;-94
2024/02/22 05:37:44;;;;;;;9.23;5.97;;;13.20;82.30;;;;;;4803291;29;20031;-94
2024/02/22 05:40:10;;;;;;;8.82;5.88;;;13.20;82.40;;;;;;4806213;29;20042;-94
2024/02/22 05:42:39;;;;;;;7.22;5.53;;;13.20;82.40;;;;;;4817556;29;20353;-93
2024/02/22 05:45:07;;;;;;;6.72;5.57;;;13.20;82.40;;;;;;4820423;29;20026;-88
2024/02/22 05:47:33;;;;;;;7.05;5.78;;;13.20;82.40;;;;;;4805345;29;20046;-94
2024/02/22 05:49:59;;;;;;;6.88;5.32;;;13.20;82.40;;;;;;4803602;29;20034;-84
2024/02/22 05:52:26;;;;;;;6.90;5.15;;;13.20;82.40;;;;;;4789537;29;20471;-93
2024/02/22 05:54:53;;;;;;;7.30;5.45;;;13.20;82.40;;;;;;4798028;29;20041;-82
2024/02/22 05:57:20;;;;;;;7.97;5.53;;;13.20;82.40;;;;;;4799600;29;20126;-95
2024/02/22 05:59:45;;;;;;;7.53;5.38;;;13.10;82.40;;;;;;4784409;29;20099;-86
2024/02/22 06:02:14;;;;;;;7.78;5.22;;;13.20;82.40;;;;;;4818559;29;20030;-86
2024/02/22 06:04:40;;;;;;;7.43;5.35;;;13.20;82.40;;;;;;4805150;29;20033;-93
2024/02/22 06:07:08;;;;;;;7.30;5.40;;;13.10;82.40;;;;;;4788001;29;20035;-85
2024/02/22 06:09:34;;;;;;;7.20;5.50;;;13.10;82.40;;;;;;4822510;29;20090;-86
2024/02/22 06:12:00;;;;;;;7.05;5.07;;;13.10;82.40;;;;;;4797918;29;20882;-86
2024/02/22 06:14:25;;;;;;;7.10;5.05;;;13.10;82.40;;;;;;4819157;29;20652;-86
2024/02/22 06:16:51;;;;;;;6.60;5.07;;;13.10;82.40;;;;;;4799619;29;20113;-82
2024/02/22 06:19:20;;;;;;;8.32;5.32;;;13.10;82.40;;;;;;4793337;29;20388;-89
2024/02/22 06:21:46;;;;;;;7.78;5.53;;;13.10;82.40;;;;;;4787651;29;20043;-85
2024/02/22 06:24:14;;;;;;;6.20;4.68;;;13.10;82.40;;;;;;4824108;29;20026;-91
2024/02/22 06:26:41;;;;;;;7.40;4.90;;;13.10;82.40;;;;;;4790112;29;20492;-82
2024/02/22 06:29:08;;;;;;;7.88;5.25;;;13.10;82.50;;;;;;4803746;29;20053;-88
2024/02/22 06:31:33;;;;;;;8.48;5.38;;;13.10;82.50;;;;;;4808198;29;20039;-93
2024/02/22 06:34:00;;;;;;;7.95;5.10;;;13.10;82.50;;;;;;4790930;29;20490;-84
2024/02/22 06:36:27;;;;;;;8.00;5.53;;;13.10;82.50;;;;;;4821460;29;20094;-94
2024/02/22 06:38:56;;;;;;;6.50;5.15;;;13.10;82.50;;;;;;4809611;29;20030;-84
2024/02/22 06:41:22;;;;;;;7.65;4.97;;;13.10;82.50;;;;;;4802739;29;20050;-94
2024/02/22 06:43:48;;;;;;;6.30;5.00;;;13.10;83.10;;;;;;4791725;29;20038;-95
2024/02/22 06:46:14;;;;;;;7.22;5.20;;;13.10;82.50;;;;;;4790489;29;20030;-95
2024/02/22 06:48:40;;;;;;;7.65;5.53;;;13.10;82.50;;;;;;4819391;29;20035;-91
2024/02/22 06:51:06;;;;;;;7.88;5.45;;;13.10;82.50;;;;;;4803741;29;20034;-92
2024/02/22 06:53:32;;;;;;;8.52;5.93;;;13.10;82.50;;;;;;4801637;29;20058;-91
2024/02/22 06:55:58;;;;;;;6.50;5.10;;;13.10;82.50;;;;;;4800855;29;20121;-89
2024/02/22 06:58:23;;;;;;;7.28;5.50;;;13.00;82.40;;;;;;4818052;29;20026;-90
2024/02/22 07:00:49;;;;;;;6.78;5.57;;;13.10;82.50;;;;;;4821803;29;20080;-80
2024/02/22 07:03:15;;;;;;;7.30;5.05;;;13.00;82.40;;;;;;4791051;29;20041;-91
2024/02/22 07:05:41;;;;;;;6.85;4.78;;;13.00;82.50;;;;;;4802334;29;20121;-85
2024/02/22 07:08:07;;;;;;;7.55;5.35;;;13.00;82.50;;;;;;4794290;29;20051;-93
2024/02/22 07:10:32;;;;;;;7.43;5.43;;;13.00;82.50;;;;;;4796121;29;20069;-92
2024/02/22 07:12:58;;;;;;;7.10;5.18;;;13.00;82.50;;;;;;4814296;29;20061;-92
2024/02/22 07:15:24;;;;;;;6.53;4.90;;;13.00;82.50;;;;;;4789365;29;20023;-93
2024/02/22 07:17:52;;;;;;;6.85;4.93;;;13.00;82.50;;;;;;4806145;29;20407;-92
2024/02/22 07:20:18;;;;;;;6.45;4.68;;;13.00;82.50;;;;;;4805481;29;20034;-90
2024/02/22 07:22:48;;;;;;;7.55;5.32;;;13.00;82.60;;;;;;4786922;29;20185;-92
2024/02/22 07:25:18;;;;;;;6.07;4.97;;;13.00;82.60;;;;;;4806779;29;20042;-91
2024/02/22 07:27:44;;;;;;;7.25;5.03;;;13.00;82.60;;;;;;4797515;29;20046;-80
2024/02/22 07:30:13;;;;;;;6.95;5.25;;;13.00;82.60;;;;;;4802673;29;20361;-80
2024/02/22 07:32:39;;;;;;;6.60;4.95;;;13.00;82.50;;;;;;4804271;29;20018;-80
2024/02/22 07:35:05;;;;;;;6.55;4.70;;;13.00;82.60;;;;;;4811730;29;20045;-91
2024/02/22 07:37:33;;;;;;;8.25;5.20;;;13.00;82.60;;;;;;4808529;29;20039;-89
2024/02/22 07:39:59;;;;;;;7.43;5.03;;;13.00;82.60;;;;;;4789820;29;20046;-80
2024/02/22 07:42:25;;;;;;;5.70;4.80;;;13.00;82.60;;;;;;4818838;29;20034;-91
2024/02/22 07:44:52;;;;;;;7.38;5.13;;;13.00;82.60;;;;;;4796199;29;20030;-91
2024/02/22 07:47:18;;;;;;;6.65;4.97;;;13.00;82.60;;;;;;4795549;29;20621;-90
2024/02/22 07:49:44;;;;;;;6.97;4.95;;;13.00;82.60;;;;;;4796733;29;20109;-91
2024/02/22 07:52:10;;;;;;;6.13;4.85;;;13.00;82.60;;;;;;4812719;29;20034;-86
2024/02/22 07:54:38;;;;;;;7.10;5.13;;;13.00;82.60;;;;;;4809131;29;20033;-91
2024/02/22 07:57:04;;;;;;;6.60;5.00;;;13.00;82.60;;;;;;4813846;29;20034;-86
2024/02/22 07:59:30;;;;;;;6.82;4.85;;;13.00;82.50;;;;;;4794233;29;20039;-90
2024/02/22 08:01:57;;;;;;;6.47;5.03;;;13.00;82.60;;;;;;4827296;29;20050;-86
2024/02/22 08:04:26;;;;;;;6.55;5.10;;;13.00;82.60;;;;;;4813235;29;20087;-90
2024/02/22 08:06:52;;;;;;;6.95;5.45;;;13.00;82.60;;;;;;4814514;29;20091;-80
2024/02/22 08:09:18;;;;;;;6.43;5.03;;;13.00;82.60;;;;;;4798129;29;20084;-80
2024/02/22 08:11:50;;;;;;;6.32;5.15;;;12.90;82.60;;;;;;4788879;29;20062;-91
2024/02/22 08:14:16;;;;;;;6.22;4.95;;;13.00;82.60;;;;;;4791728;29;20078;-86
2024/02/22 08:16:42;;;;;;;6.57;5.28;;;13.00;82.60;;;;;;4805742;29;20026;-91
2024/02/22 08:19:08;;;;;;;6.68;5.03;;;13.00;82.60;;;;;;4800564;29;20041;-90
2024/02/22 08:21:33;;;;;;;6.32;5.00;;;13.00;82.60;;;;;;4789446;29;20037;-81
2024/02/22 08:23:59;;;;;;;7.13;5.38;;;13.00;82.60;;;;;;4794454;29;20058;-91
2024/02/22 08:26:26;;;;;;;6.65;5.43;;;13.00;82.60;;;;;;4829524;29;20031;-91
2024/02/22 08:28:55;;;;;;;6.97;5.32;;;13.00;82.60;;;;;;4816338;29;20526;-80
2024/02/22 08:31:24;;;;;;;7.07;5.47;;;13.00;82.60;;;;;;4829382;29;20031;-90
2024/02/22 08:33:50;;;;;;;7.22;5.78;;;13.00;82.50;;;;;;4800239;29;20057;-90
2024/02/22 08:36:16;;;;;;;6.32;4.93;;;13.00;82.50;;;;;;4792657;29;20513;-90
2024/02/22 08:38:41;;;;;;;6.28;5.25;;;13.00;82.50;;;;;;4809992;29;20058;-85
2024/02/22 08:41:08;;;;;;;6.95;5.43;;;13.00;82.50;;;;;;4791261;29;20074;-90
2024/02/22 08:43:34;;;;;;;7.28;6.13;;;13.00;82.50;;;;;;4813089;29;20034;-89
2024/02/22 08:46:01;;;;;;;6.72;5.38;;;13.00;82.50;;;;;;4787357;29;20035;-80
2024/02/22 08:48:27;;;;;;;7.13;6.05;;;13.00;82.50;;;;;;4790592;29;20051;-79
2024/02/22 08:50:54;;;;;;;6.82;5.47;;;13.00;82.50;;;;;;4808865;29;20034;-90
2024/02/22 08:53:20;;;;;;;6.88;5.32;;;13.10;82.60;;;;;;4808935;29;20038;-81
2024/02/22 08:55:46;;;;;;;6.82;5.32;;;13.10;82.60;;;;;;4805895;29;20034;-90
2024/02/22 08:58:12;;;;;;;6.22;4.88;;;13.10;82.60;;;;;;4826793;29;20042;-89
2024/02/22 09:00:38;;;;;;;6.38;5.47;;;13.10;82.60;;;;;;4808074;29;20535;-86
2024/02/22 09:03:04;;;;;;;6.05;5.13;;;13.00;82.60;;;;;;4807286;29;20097;-80
2024/02/22 09:05:29;;;;;;;6.03;4.80;;;13.10;82.60;;;;;;4820676;29;20087;-86
2024/02/22 09:07:55;;;;;;;6.45;5.10;;;13.10;82.60;;;;;;4819852;29;20091;-92
2024/02/22 09:10:21;;;;;;;6.38;5.07;;;13.10;82.60;;;;;;4792954;29;20607;-85
2024/02/22 09:12:50;;;;;;;6.28;5.30;;;13.10;82.60;;;;;;4787737;29;20122;-81
2024/02/22 09:15:16;;;;;;;6.43;5.32;;;13.10;82.50;;;;;;4806824;29;20018;-92
2024/02/22 09:17:41;;;;;;;6.32;5.22;;;13.10;82.50;;;;;;4803695;29;20556;-90
2024/02/22 09:20:07;;;;;;;6.05;4.72;;;13.10;82.50;;;;;;4805480;29;20544;-89
2024/02/22 09:22:33;;;;;;;5.80;4.63;;;13.20;82.50;;;;;;4794344;29;20389;-87
2024/02/22 09:24:59;;;;;;;5.85;4.93;;;13.20;82.50;;;;;;4793225;29;20042;-92
2024/02/22 09:27:25;;;;;;;6.80;4.90;;;13.20;82.50;;;;;;4793609;29;20039;-86
2024/02/22 09:29:53;;;;;;;5.97;4.80;;;13.20;82.40;;;;;;4829517;29;20459;-81
2024/02/22 09:32:19;;;;;;;6.50;4.82;;;13.20;82.50;;;;;;4799789;29;20114;-92
2024/02/22 09:34:47;;;;;;;5.85;4.75;;;13.20;82.50;;;;;;4794179;29;20125;-81
2024/02/22 09:37:13;;;;;;;5.45;4.38;;;13.20;82.40;;;;;;4823402;29;20035;-90
2024/02/22 09:39:40;;;;;;;6.97;4.65;;;13.20;82.40;;;;;;4814730;29;20026;-81
2024/02/22 09:42:07;;;;;;;5.90;4.80;;;13.20;82.40;;;;;;4795750;29;20043;-86
2024/02/22 09:44:34;;;;;;;5.72;4.60;;;13.20;82.50;;;;;;4805269;29;20092;-86
2024/02/22 09:47:01;;;;;;;5.88;4.90;;;13.30;82.50;;;;;;4796699;29;20053;-86
2024/02/22 09:49:27;;;;;;;5.93;5.10;;;13.30;82.50;;;;;;4814714;29;20030;-81
2024/02/22 09:51:54;;;;;;;5.47;4.78;;;13.30;82.50;;;;;;4812421;29;20037;-86
2024/02/22 09:54:21;;;;;;;5.95;4.82;;;13.30;82.50;;;;;;4815810;29;20406;-81
2024/02/22 09:56:50;;;;;;;5.65;4.78;;;13.30;82.50;;;;;;4792233;29;20038;-92
2024/02/22 09:59:17;;;;;;;6.00;5.00;;;13.40;82.50;;;;;;4809306;29;20034;-86
2024/02/22 10:01:47;;;;;;;5.55;4.65;;;13.40;82.50;;;;;;4816128;29;20470;-90
2024/02/22 10:04:19;;;;;;;6.10;4.57;;;13.40;82.50;;;;;;4794500;29;20038;-90
2024/02/22 10:06:46;;;;;;;5.50;4.30;;;13.40;82.40;;;;;;4805654;29;20048;-86
2024/02/22 10:09:12;;;;;;;5.70;4.45;;;13.40;82.40;;;;;;4813638;29;20418;-91
2024/02/22 10:11:48;;;;;;;4.90;4.07;;;13.40;82.40;;;;;;4816453;29;20395;-90
2024/02/22 10:14:14;;;;;;;4.82;3.85;;;13.40;82.40;;;;;;4795980;29;20068;-91
2024/02/22 10:16:47;;;;;;;7.03;4.80;;;13.40;82.40;;;;;;4809394;29;20091;-90
2024/02/22 10:19:19;;;;;;;5.20;4.28;;;13.50;82.40;;;;;;4806009;29;20066;-90
2024/02/22 10:21:46;;;;;;;4.78;3.95;;;13.40;82.40;;;;;;4806020;29;20030;-81
2024/02/22 10:24:13;;;;;;;4.47;3.80;;;13.50;82.50;;;;;;4807980;29;20090;-90
2024/02/22 10:26:38;;;;;;;4.72;4.05;;;13.50;82.40;;;;;;4809428;29;20034;-86
2024/02/22 10:29:08;;;;;;;4.82;4.00;;;13.50;82.40;;;;;;4790981;29;20048;-83
2024/02/22 10:31:48;;;;;;;4.40;3.60;;;13.50;82.40;;;;;;4807169;29;20059;-81
2024/02/22 10:34:14;;;;;;;4.90;4.03;;;13.60;82.40;;;;;;4799627;29;20156;-80
2024/02/22 10:36:42;;;;;;;4.72;3.90;;;13.60;82.40;;;;;;4833129;29;20049;-85
2024/02/22 10:39:13;;;;;;;5.00;3.97;;;13.60;82.40;;;;;;4811998;29;20030;-91
2024/02/22 10:41:39;;;;;;;4.65;3.55;;;13.70;82.40;;;;;;4801097;29;20073;-86
2024/02/22 10:44:06;;;;;;;4.20;3.80;;;13.60;82.30;;;;;;4822687;29;20038;-87
2024/02/22 10:46:37;;;;;;;4.25;3.45;;;13.70;82.40;;;;;;4818452;29;20403;-87
2024/02/22 10:49:13;;;;;;;4.55;3.80;;;13.70;82.40;;;;;;4795973;29;20042;-84
2024/02/22 10:51:40;;;;;;;4.40;3.15;;;13.70;82.40;;;;;;4824353;29;20046;-88
2024/02/22 10:54:11;;;;;;;4.47;3.60;;;13.70;82.40;;;;;;4807780;29;20093;-89
2024/02/22 10:56:47;;;;;;;3.97;3.47;;;13.70;82.40;;;;;;4793290;29;20090;-90
2024/02/22 10:59:21;;;;;;;4.45;3.38;;;13.70;82.40;;;;;;4805784;29;20083;-90
2024/02/22 11:01:51;;;;;;;4.70;3.67;;;13.70;82.40;;;;;;4807555;29;20030;-89
2024/02/22 11:04:20;;;;;;;4.38;3.65;;;13.70;82.40;;;;;;4799065;29;20291;-80
2024/02/22 11:06:48;;;;;;;3.85;3.35;;;13.70;82.40;;;;;;4797920;29;20034;-90
2024/02/22 11:09:18;;;;;;;3.80;3.20;;;13.80;82.40;;;;;;4798351;29;20079;-94
2024/02/22 11:11:46;;;;;;;4.13;3.42;;;13.80;82.40;;;;;;4797900;29;20026;-87
2024/02/22 11:14:13;;;;;;;4.60;3.20;;;13.80;82.40;;;;;;4813925;29;20073;-89
2024/02/22 11:16:42;;;;;;;4.22;3.83;;;13.80;82.40;;;;;;4805583;29;20106;-82
2024/02/22 11:19:09;;;;;;;4.28;3.20;;;13.80;82.40;;;;;;4789449;29;20468;-87
2024/02/22 11:21:41;;;;;;;3.40;2.95;;;13.80;82.30;;;;;;4807212;29;20087;-88
2024/02/22 11:24:13;;;;;;;3.75;3.20;;;13.90;82.40;;;;;;4789380;29;20022;-87
2024/02/22 11:26:40;;;;;;;3.60;3.00;;;13.90;82.40;;;;;;4815303;29;20619;-87
2024/02/22 11:29:07;;;;;;;3.38;2.97;;;13.80;82.30;;;;;;4812907;29;20155;-92
2024/02/22 11:31:35;;;;;;;3.70;2.90;;;13.90;82.30;;;;;;4795078;29;20453;-81
2024/02/22 11:34:02;;;;;;;3.15;2.85;;;13.90;82.30;;;;;;4829556;29;20395;-81
2024/02/22 11:36:29;;;;;;;3.28;2.97;;;13.90;82.30;;;;;;4806403;29;20045;-87
2024/02/22 11:39:06;;;;;;;3.40;3.00;;;13.90;82.30;;;;;;4791029;29;20522;-89
2024/02/22 11:41:33;;;;;;;3.95;3.28;;;14.00;82.30;;;;;;4803993;29;20051;-81
2024/02/22 11:44:07;;;;;;;3.88;3.25;;;14.00;82.30;;;;;;4806008;29;20046;-90
2024/02/22 11:46:38;;;;;;;4.05;3.30;;;14.00;82.30;;;;;;4795093;29;20041;-86
2024/02/22 11:49:05;;;;;;;3.20;2.90;;;14.00;82.30;;;;;;4795160;29;20038;-84
2024/02/22 11:51:32;;;;;;;3.10;2.80;;;14.00;82.30;;;;;;4800977;29;20124;-86
2024/02/22 11:53:58;;;;;;;3.13;2.65;;;14.00;82.30;;;;;;4808362;29;20109;-89
2024/02/22 11:56:24;;;;;;;3.20;2.80;;;14.00;82.20;;;;;;4802709;29;20023;-89
2024/02/22 11:58:50;;;;;;;2.80;2.50;;;14.00;82.20;;;;;;4825901;29;20046;-89
2024/02/22 12:01:18;;;;;;;2.63;2.40;;;14.00;82.20;;;;;;4827391;29;20038;-87
2024/02/22 12:03:46;;;;;;;3.28;2.90;;;14.10;82.30;;;;;;4797719;29;20122;-81
2024/02/22 12:06:14;;;;;;;3.00;2.70;;;14.10;82.30;;;;;;4798366;29;20463;-90
2024/02/22 12:09:00;;;;;;;3.10;2.70;;;14.00;82.20;;;;;;4824012;29;20038;-83
2024/02/22 12:11:26;;;;;;;2.92;2.63;;;14.10;82.20;;;;;;4823994;29;20590;-93
2024/02/22 12:14:03;;;;;;;2.70;2.35;;;14.00;82.20;;;;;;4796545;29;20511;-92
2024/02/22 12:16:30;;;;;;;2.72;2.50;;;14.10;82.20;;;;;;4822031;29;20054;-92
2024/02/22 12:18:56;;;;;;;2.83;2.53;;;14.10;82.20;;;;;;4826209;29;20545;-90
2024/02/22 12:21:26;;;;;;;3.05;2.75;;;14.10;82.20;;;;;;4787077;29;20135;-80
2024/02/22 12:24:10;;;;;;;2.83;2.55;;;14.10;82.20;;;;;;4802722;29;20090;-85
2024/02/22 12:26:36;;;;;;;2.83;2.47;;;14.10;82.20;;;;;;4807245;29;20027;-80
2024/02/22 12:29:02;;;;;;;3.00;2.50;;;14.10;82.20;;;;;;4802729;29;20551;-80
2024/02/22 12:31:28;;;;;;;3.53;2.33;;;14.10;82.20;;;;;;4809579;29;20072;-91
2024/02/22 12:33:57;;;;;;;2.60;2.40;;;14.20;82.20;;;;;;4822240;29;20042;-81
2024/02/22 12:36:24;;;;;;;2.45;2.25;;;14.10;82.10;;;;;;4815804;29;20038;-80
2024/02/22 12:38:51;;;;;;;2.40;2.20;;;14.20;82.20;;;;;;4806550;29;20027;-81
2024/02/22 12:41:18;;;;;;;3.47;2.70;;;14.20;82.20;;;;;;4828265;29;20070;-80
2024/02/22 12:43:53;;;;;;;2.92;2.30;;;14.20;82.20;;;;;;4804542;29;20046;-85
2024/02/22 12:46:20;;;;;;;2.50;2.30;;;14.20;82.20;;;;;;4825557;29;20034;-89
2024/02/22 12:48:45;;;;;;;2.20;2.00;;;14.20;82.10;;;;;;4826598;29;20045;-90